createdAt,value
2022-09-06T00:00:15.497Z,19.40
2022-09-06T00:02:43.504Z,19.50
2022-09-06T00:05:12.697Z,19.60
2022-09-06T00:07:40.511Z,19.60
2022-09-06T00:10:08.294Z,19.70
2022-09-06T00:12:36.116Z,19.70
2022-09-06T00:15:05.219Z,19.80
2022-09-06T00:17:33.038Z,19.90
2022-09-06T00:20:00.491Z,20.00
2022-09-06T00:22:27.682Z,20.10
2022-09-06T00:24:54.840Z,20.30
2022-09-06T00:27:22.317Z,20.40
2022-09-06T00:29:49.475Z,20.50
2022-09-06T00:32:17.166Z,20.60
2022-09-06T00:34:44.364Z,20.60
2022-09-06T00:37:11.615Z,20.60
2022-09-06T00:39:38.798Z,20.60
2022-09-06T00:42:10.555Z,20.70
2022-09-06T00:44:38.683Z,20.70
2022-09-06T00:47:07.596Z,20.70
2022-09-06T00:49:48.439Z,20.90
2022-09-06T00:52:18.835Z,20.80
2022-09-06T00:54:47.238Z,20.80
2022-09-06T00:57:15.751Z,20.80
2022-09-06T00:59:44.234Z,20.90
2022-09-06T01:02:12.260Z,20.80
2022-09-06T01:04:42.422Z,20.90
2022-09-06T01:07:32.979Z,20.80
2022-09-06T01:10:16.655Z,20.60
2022-09-06T01:13:14.687Z,20.50
2022-09-06T01:16:04.921Z,20.30
2022-09-06T01:19:03.947Z,20.20
2022-09-06T01:21:31.113Z,20.20
2022-09-06T01:24:25.291Z,20.00
2022-09-06T01:27:32.649Z,20.00
2022-09-06T01:30:11.019Z,19.90
2022-09-06T01:32:49.554Z,19.90
2022-09-06T01:35:40.947Z,19.90
2022-09-06T01:38:09.156Z,19.90
2022-09-06T01:40:36.552Z,19.80
2022-09-06T01:43:10.691Z,19.90
2022-09-06T01:45:53.016Z,20.00
2022-09-06T01:48:29.306Z,20.10
2022-09-06T01:51:02.292Z,20.10
2022-09-06T01:54:00.071Z,20.00
2022-09-06T01:56:52.295Z,20.00
2022-09-06T02:00:05.579Z,19.90
2022-09-06T02:02:58.420Z,19.90
2022-09-06T02:05:51.792Z,20.00
2022-09-06T02:08:33.843Z,20.00
2022-09-06T02:11:03.958Z,20.10
2022-09-06T02:13:35.029Z,20.00
2022-09-06T02:16:04.753Z,20.10
2022-09-06T02:18:37.817Z,20.10
2022-09-06T02:21:08.309Z,20.10
2022-09-06T02:23:40.398Z,20.10
2022-09-06T02:26:13.983Z,20.10
2022-09-06T02:28:41.151Z,20.10
2022-09-06T02:31:54.603Z,20.20
2022-09-06T02:34:22.251Z,20.20
2022-09-06T02:36:50.804Z,20.30
2022-09-06T02:39:18.069Z,20.30
2022-09-06T02:41:47.846Z,20.30
2022-09-06T02:44:15.646Z,20.30
2022-09-06T02:46:42.849Z,20.40
2022-09-06T02:49:09.975Z,20.40
2022-09-06T02:51:39.079Z,20.40
2022-09-06T02:54:06.943Z,20.30
2022-09-06T02:56:34.417Z,20.40
2022-09-06T02:59:01.593Z,20.40
2022-09-06T03:01:28.836Z,20.40
2022-09-06T03:03:56.558Z,20.40
2022-09-06T03:06:24.029Z,20.40
2022-09-06T03:08:51.420Z,20.40
2022-09-06T03:11:18.767Z,20.40
2022-09-06T03:13:45.948Z,20.40
2022-09-06T03:16:13.462Z,20.40
2022-09-06T03:18:40.672Z,20.40
2022-09-06T03:21:08.090Z,20.40
2022-09-06T03:23:35.429Z,20.40
2022-09-06T03:26:02.639Z,20.40
2022-09-06T03:28:30.019Z,20.40
2022-09-06T03:30:57.506Z,20.40
2022-09-06T03:33:24.748Z,20.40
2022-09-06T03:35:54.782Z,20.40
2022-09-06T03:38:22.486Z,20.40
2022-09-06T03:40:50.265Z,20.40
2022-09-06T03:43:18.458Z,20.30
2022-09-06T03:45:52.578Z,20.40
2022-09-06T03:48:21.811Z,20.40
2022-09-06T03:50:50.987Z,20.30
2022-09-06T03:53:18.883Z,20.30
2022-09-06T03:55:47.772Z,20.30
2022-09-06T03:58:16.373Z,20.20
2022-09-06T04:00:44.453Z,20.20
2022-09-06T04:03:12.029Z,20.30
2022-09-06T04:05:39.258Z,20.30
2022-09-06T04:08:06.391Z,20.30
2022-09-06T04:10:33.859Z,20.30
2022-09-06T04:13:01.061Z,20.30
2022-09-06T04:15:28.233Z,20.30
2022-09-06T04:17:55.457Z,20.30
2022-09-06T04:20:22.600Z,20.40
2022-09-06T04:22:49.761Z,20.30
2022-09-06T04:25:16.979Z,20.40
2022-09-06T04:27:44.119Z,20.40
2022-09-06T04:30:11.427Z,20.40
2022-09-06T04:32:38.613Z,20.40
2022-09-06T04:35:06.304Z,20.30
2022-09-06T04:37:33.457Z,22.40
2022-09-06T04:40:00.702Z,20.20
2022-09-06T04:42:28.029Z,20.20
2022-09-06T04:44:55.166Z,20.10
2022-09-06T04:47:22.834Z,20.10
2022-09-06T04:49:49.977Z,20.10
2022-09-06T04:52:17.541Z,20.10
2022-09-06T04:54:44.843Z,20.00
2022-09-06T04:57:12.006Z,20.10
2022-09-06T04:59:39.145Z,20.10
2022-09-06T05:02:06.372Z,20.10
2022-09-06T05:04:33.567Z,20.10
2022-09-06T05:07:05.868Z,20.10
2022-09-06T05:09:33.887Z,20.10
2022-09-06T05:12:01.773Z,20.00
2022-09-06T05:14:29.598Z,20.00
2022-09-06T05:16:56.888Z,20.00
2022-09-06T05:19:24.172Z,20.00
2022-09-06T05:21:52.046Z,20.00
2022-09-06T05:24:19.430Z,20.00
2022-09-06T05:26:46.661Z,20.00
2022-09-06T05:29:13.818Z,20.00
2022-09-06T05:31:41.080Z,20.00
2022-09-06T05:34:08.347Z,20.10
2022-09-06T05:36:35.648Z,20.30
2022-09-06T05:39:02.848Z,20.20
2022-09-06T05:41:29.991Z,20.20
2022-09-06T05:43:57.207Z,20.30
2022-09-06T05:46:24.412Z,20.40
2022-09-06T05:48:52.983Z,20.50
2022-09-06T05:51:20.427Z,20.60
2022-09-06T05:53:48.026Z,20.70
2022-09-06T05:56:17.297Z,20.20
2022-09-06T05:58:44.700Z,20.80
2022-09-06T06:01:18.710Z,20.90
2022-09-06T06:03:57.264Z,21.00
2022-09-06T06:06:27.046Z,21.00
2022-09-06T06:08:54.483Z,21.10
2022-09-06T06:11:22.112Z,21.10
2022-09-06T06:13:49.457Z,21.20
2022-09-06T06:16:18.446Z,21.30
2022-09-06T06:18:52.221Z,21.30
2022-09-06T06:21:23.042Z,21.20
2022-09-06T06:23:55.434Z,21.40
2022-09-06T06:26:23.603Z,21.40
2022-09-06T06:28:51.669Z,21.50
2022-09-06T06:31:20.905Z,21.50
2022-09-06T06:33:48.814Z,21.60
2022-09-06T06:36:15.919Z,21.60
2022-09-06T06:38:46.297Z,21.70
2022-09-06T06:41:17.088Z,21.70
2022-09-06T06:43:44.266Z,21.80
2022-09-06T06:46:14.975Z,21.80
2022-09-06T06:48:43.701Z,22.00
2022-09-06T06:51:20.235Z,22.00
2022-09-06T06:53:48.947Z,22.10
2022-09-06T06:56:42.999Z,22.20
2022-09-06T06:59:10.290Z,22.30
2022-09-06T07:01:37.950Z,22.30
2022-09-06T07:04:07.043Z,22.30
2022-09-06T07:12:29.100Z,22.20
2022-09-06T07:14:56.243Z,22.30
2022-09-06T07:17:23.458Z,22.30
2022-09-06T07:22:39.087Z,22.60
2022-09-06T07:25:07.291Z,22.70
2022-09-06T07:27:50.537Z,22.70
2022-09-06T07:30:19.776Z,22.80
2022-09-06T07:32:47.314Z,22.90
2022-09-06T07:35:14.618Z,23.00
2022-09-06T07:37:41.871Z,23.00
2022-09-06T07:40:10.132Z,22.90
2022-09-06T07:42:37.553Z,22.80
2022-09-06T07:45:05.811Z,22.90
2022-09-06T07:53:11.322Z,23.10
2022-09-06T07:55:43.027Z,23.30
2022-09-06T07:58:10.941Z,23.50
2022-09-06T08:00:41.369Z,23.60
2022-09-06T08:03:08.915Z,23.60
2022-09-06T08:11:10.813Z,23.70
2022-09-06T08:13:38.453Z,23.70
2022-09-06T08:16:07.978Z,23.70
2022-09-06T08:18:36.327Z,23.70
2022-09-06T08:21:23.690Z,23.80
2022-09-06T08:23:53.453Z,23.90
2022-09-06T08:26:22.902Z,24.00
2022-09-06T08:28:58.799Z,24.20
2022-09-06T08:31:27.681Z,24.30
2022-09-06T08:33:56.155Z,24.40
2022-09-06T08:36:27.025Z,24.50
2022-09-06T08:38:54.235Z,24.60
2022-09-06T08:41:27.564Z,24.60
2022-09-06T08:46:52.313Z,25.20
2022-09-06T08:49:19.731Z,26.60
2022-09-06T08:51:58.735Z,29.00
2022-09-06T08:54:39.896Z,31.20
2022-09-06T08:57:40.234Z,32.80
2022-09-06T09:00:13.446Z,32.40
2022-09-06T09:02:43.856Z,31.10
2022-09-06T09:05:22.141Z,29.40
2022-09-06T09:08:10.284Z,28.30
2022-09-06T09:10:50.604Z,27.60
2022-09-06T09:13:40.845Z,27.50
2022-09-06T09:16:08.181Z,27.40
2022-09-06T09:18:42.930Z,28.10
2022-09-06T09:21:10.244Z,29.30
2022-09-06T09:23:37.437Z,30.60
2022-09-06T09:26:12.038Z,32.40
2022-09-06T09:28:39.206Z,34.60
2022-09-06T09:31:07.388Z,35.90
2022-09-06T09:33:38.664Z,36.50
2022-09-06T09:36:11.005Z,36.90
2022-09-06T09:38:52.884Z,36.10
2022-09-06T09:41:31.668Z,34.80
2022-09-06T09:44:17.631Z,32.80
2022-09-06T09:46:45.128Z,31.60
2022-09-06T09:49:14.762Z,32.60
2022-09-06T09:51:47.298Z,35.20
2022-09-06T09:54:29.818Z,37.00
2022-09-06T09:56:57.514Z,37.70
2022-09-06T09:59:28.902Z,36.40
2022-09-06T10:02:01.023Z,35.60
2022-09-06T10:04:45.765Z,34.70
2022-09-06T10:07:14.876Z,33.40
2022-09-06T10:09:45.183Z,32.90
2022-09-06T10:12:28.991Z,33.40
2022-09-06T10:14:56.430Z,34.30
2022-09-06T10:17:57.663Z,36.80
2022-09-06T10:20:39.814Z,37.70
2022-09-06T10:23:10.686Z,38.90
2022-09-06T10:25:48.951Z,40.00
2022-09-06T10:28:38.989Z,39.90
2022-09-06T10:31:54.166Z,39.00
2022-09-06T10:34:46.902Z,37.70
2022-09-06T10:37:19.900Z,37.40
2022-09-06T10:39:56.675Z,38.10
2022-09-06T10:42:34.594Z,37.80
2022-09-06T10:45:24.926Z,37.60
2022-09-06T10:48:02.706Z,36.00
2022-09-06T10:50:41.890Z,37.40
2022-09-06T10:53:19.882Z,39.70
2022-09-06T10:55:52.877Z,40.90
2022-09-06T10:58:26.797Z,41.70
2022-09-06T11:00:55.308Z,42.90
2022-09-06T11:03:58.258Z,42.40
2022-09-06T11:06:36.054Z,39.80
2022-09-06T11:09:23.681Z,37.40
2022-09-06T11:12:09.205Z,35.50
2022-09-06T11:14:37.852Z,35.60
2022-09-06T11:17:11.714Z,37.80
2022-09-06T11:19:53.276Z,40.20
2022-09-06T11:22:38.504Z,42.00
2022-09-06T11:25:46.976Z,39.80
2022-09-06T11:28:26.196Z,36.00
2022-09-06T11:30:57.495Z,36.20
2022-09-06T11:33:39.768Z,37.30
2022-09-06T11:36:16.836Z,38.70
2022-09-06T11:38:55.119Z,40.80
2022-09-06T11:41:30.945Z,42.20
2022-09-06T11:43:58.647Z,43.00
2022-09-06T11:46:34.844Z,43.60
2022-09-06T11:49:06.379Z,44.80
2022-09-06T11:51:38.044Z,45.90
2022-09-06T11:54:22.982Z,46.20
2022-09-06T11:57:09.663Z,44.90
2022-09-06T11:59:47.902Z,43.30
2022-09-06T12:02:45.966Z,43.10
2022-09-06T12:05:19.365Z,43.90
2022-09-06T12:08:24.947Z,44.10
2022-09-06T12:11:04.815Z,44.90
2022-09-06T12:13:46.939Z,45.30
2022-09-06T12:16:16.319Z,45.40
2022-09-06T12:18:43.506Z,45.30
2022-09-06T12:21:36.643Z,46.20
2022-09-06T12:24:05.594Z,46.20
2022-09-06T12:26:55.816Z,44.50
2022-09-06T12:29:25.863Z,43.50
2022-09-06T12:31:56.697Z,43.00
2022-09-06T12:34:37.876Z,42.10
2022-09-06T12:37:09.090Z,42.00
2022-09-06T12:39:36.795Z,42.50
2022-09-06T12:42:12.573Z,43.00
2022-09-06T12:44:49.043Z,42.50
2022-09-06T12:47:23.374Z,42.70
2022-09-06T12:50:15.759Z,43.60
2022-09-06T12:52:53.856Z,43.70
2022-09-06T12:55:23.819Z,44.10
2022-09-06T12:57:56.748Z,45.20
2022-09-06T13:00:28.031Z,45.40
2022-09-06T13:03:27.677Z,45.60
2022-09-06T13:05:56.425Z,45.30
2022-09-06T13:08:51.946Z,44.70
2022-09-06T13:11:28.113Z,44.40
2022-09-06T13:13:55.744Z,44.60
2022-09-06T13:16:36.343Z,45.40
2022-09-06T13:19:29.709Z,45.50
2022-09-06T13:22:00.220Z,46.30
2022-09-06T13:24:46.622Z,46.70
2022-09-06T13:27:32.747Z,46.60
2022-09-06T13:30:06.976Z,45.90
2022-09-06T13:32:35.400Z,46.20
2022-09-06T13:35:03.647Z,46.30
2022-09-06T13:37:33.951Z,45.90
2022-09-06T13:40:04.908Z,46.00
2022-09-06T13:42:36.540Z,47.20
2022-09-06T13:45:28.355Z,48.00
2022-09-06T13:48:07.934Z,48.10
2022-09-06T13:50:43.369Z,48.40
2022-09-06T13:53:11.059Z,48.90
2022-09-06T13:55:38.319Z,47.00
2022-09-06T13:58:05.675Z,45.20
2022-09-06T14:00:32.875Z,44.60
2022-09-06T14:03:00.749Z,44.50
2022-09-06T14:05:27.940Z,44.20
2022-09-06T14:07:55.147Z,42.20
2022-09-06T14:10:23.850Z,40.00
2022-09-06T14:12:53.757Z,39.60
2022-09-06T14:15:21.485Z,39.90
2022-09-06T14:17:49.113Z,39.70
2022-09-06T14:20:16.250Z,39.10
2022-09-06T14:22:43.479Z,37.70
2022-09-06T14:25:10.907Z,35.90
2022-09-06T14:27:38.176Z,34.90
2022-09-06T14:30:05.697Z,35.10
2022-09-06T14:32:32.926Z,35.20
2022-09-06T14:35:01.962Z,36.20
2022-09-06T14:37:29.156Z,37.50
2022-09-06T14:39:56.584Z,37.80
2022-09-06T14:42:28.291Z,37.40
2022-09-06T14:44:55.543Z,37.10
2022-09-06T14:47:22.695Z,37.10
2022-09-06T14:49:49.850Z,36.70
2022-09-06T14:52:17.000Z,36.40
2022-09-06T14:54:44.145Z,36.10
2022-09-06T14:57:11.284Z,35.10
2022-09-06T14:59:38.443Z,34.20
2022-09-06T15:02:05.640Z,34.00
2022-09-06T15:04:33.327Z,34.00
2022-09-06T15:07:00.775Z,33.90
2022-09-06T15:09:28.017Z,34.20
2022-09-06T15:11:55.389Z,35.20
2022-09-06T15:14:25.125Z,36.40
2022-09-06T15:16:56.618Z,36.70
2022-09-06T15:19:26.516Z,37.00
2022-09-06T15:21:55.136Z,37.20
2022-09-06T15:24:22.461Z,36.90
2022-09-06T15:26:50.193Z,36.20
2022-09-06T15:29:17.562Z,36.00
2022-09-06T15:31:50.059Z,35.90
2022-09-06T15:34:21.634Z,36.10
2022-09-06T15:36:49.998Z,35.70
2022-09-06T15:39:17.714Z,34.90
2022-09-06T15:41:45.332Z,34.00
2022-09-06T15:44:15.190Z,33.10
2022-09-06T15:46:45.349Z,32.50
2022-09-06T15:49:16.071Z,32.40
2022-09-06T15:51:43.422Z,32.70
2022-09-06T15:54:12.430Z,33.50
2022-09-06T15:56:39.960Z,34.20
2022-09-06T15:59:07.266Z,34.30
2022-09-06T16:01:35.111Z,34.00
2022-09-06T16:04:05.578Z,33.40
2022-09-06T16:06:37.083Z,32.70
2022-09-06T16:09:14.254Z,32.10
2022-09-06T16:11:42.105Z,31.60
2022-09-06T16:14:12.273Z,31.30
2022-09-06T16:16:43.031Z,31.70
2022-09-06T16:19:12.282Z,32.20
2022-09-06T16:21:41.955Z,32.60
2022-09-06T16:24:11.497Z,32.60
2022-09-06T16:26:42.124Z,32.60
2022-09-06T16:29:13.457Z,32.70
2022-09-06T16:31:41.177Z,32.60
2022-09-06T16:34:09.856Z,32.30
2022-09-06T16:36:37.535Z,31.90
2022-09-06T16:39:05.824Z,31.40
2022-09-06T16:41:42.605Z,30.90
2022-09-06T16:44:16.358Z,30.50
2022-09-06T16:46:49.648Z,30.10
2022-09-06T16:49:17.917Z,29.90
2022-09-06T16:51:46.567Z,29.80
2022-09-06T16:54:15.314Z,29.70
2022-09-06T16:56:43.248Z,29.50
2022-09-06T16:59:11.843Z,29.40
2022-09-06T17:01:44.139Z,29.30
2022-09-06T17:04:12.730Z,29.20
2022-09-06T17:06:44.403Z,29.00
2022-09-06T17:09:18.564Z,28.90
2022-09-06T17:11:47.570Z,28.80
2022-09-06T17:14:14.774Z,28.40
2022-09-06T17:17:00.602Z,28.20
2022-09-06T17:19:29.587Z,27.80
2022-09-06T17:21:57.146Z,27.60
2022-09-06T17:24:24.685Z,27.50
2022-09-06T17:26:51.881Z,27.40
2022-09-06T17:29:19.530Z,27.20
2022-09-06T17:31:47.763Z,27.20
2022-09-06T17:34:15.482Z,27.10
2022-09-06T17:36:42.642Z,27.10
2022-09-06T17:39:13.774Z,27.10
2022-09-06T17:41:46.760Z,27.00
2022-09-06T17:44:16.595Z,27.00
2022-09-06T17:46:57.407Z,27.00
2022-09-06T17:49:32.401Z,27.00
2022-09-06T17:51:59.570Z,26.90
2022-09-06T17:54:27.466Z,27.00
2022-09-06T17:56:54.658Z,26.90
2022-09-06T17:59:21.832Z,26.80
2022-09-06T18:01:49.067Z,26.80
2022-09-06T18:04:16.293Z,26.70
2022-09-06T18:06:46.250Z,26.60
2022-09-06T18:09:15.848Z,26.50
2022-09-06T18:11:45.890Z,26.50
2022-09-06T18:14:16.645Z,26.40
2022-09-06T18:16:46.933Z,26.30
2022-09-06T18:19:15.171Z,26.20
2022-09-06T18:21:42.391Z,26.20
2022-09-06T18:24:10.762Z,26.10
2022-09-06T18:26:38.017Z,26.10
2022-09-06T18:29:08.309Z,26.00
2022-09-06T18:31:35.554Z,26.00
2022-09-06T18:34:03.183Z,27.00
2022-09-06T18:36:32.392Z,25.90
2022-09-06T18:39:04.757Z,25.80
2022-09-06T18:41:51.650Z,25.70
2022-09-06T18:44:18.999Z,25.60
2022-09-06T18:46:46.212Z,25.50
2022-09-06T18:49:15.091Z,25.30
2022-09-06T18:51:42.999Z,25.30
2022-09-06T18:54:10.873Z,25.30
2022-09-06T18:56:38.475Z,25.30
2022-09-06T18:59:05.987Z,25.20
2022-09-06T19:01:34.778Z,25.20
2022-09-06T19:04:03.446Z,25.10
2022-09-06T19:06:32.389Z,25.10
2022-09-06T19:09:01.486Z,25.00
2022-09-06T19:11:29.285Z,24.90
2022-09-06T19:13:57.839Z,24.90
2022-09-06T19:16:27.534Z,24.80
2022-09-06T19:18:56.626Z,24.70
2022-09-06T19:21:25.455Z,24.60
2022-09-06T19:23:58.164Z,24.50
2022-09-06T19:26:28.033Z,24.40
2022-09-06T19:29:00.479Z,24.30
2022-09-06T19:31:33.127Z,24.30
2022-09-06T19:34:00.896Z,24.30
2022-09-06T19:36:29.406Z,24.20
2022-09-06T19:39:04.199Z,24.30
2022-09-06T19:41:35.400Z,24.20
2022-09-06T19:44:05.571Z,24.10
2022-09-06T19:46:33.449Z,24.10
2022-09-06T19:49:02.123Z,24.10
2022-09-06T19:51:29.708Z,24.00
2022-09-06T19:53:57.968Z,23.90
2022-09-06T19:56:28.593Z,23.90
2022-09-06T19:58:57.734Z,23.90
2022-09-06T20:01:30.708Z,23.80
2022-09-06T20:03:58.644Z,23.80
2022-09-06T20:06:27.086Z,23.70
2022-09-06T20:08:56.287Z,23.60
2022-09-06T20:11:26.535Z,23.60
2022-09-06T20:13:53.886Z,23.50
2022-09-06T20:16:21.580Z,23.50
2022-09-06T20:18:49.017Z,23.50
2022-09-06T20:21:20.871Z,23.50
2022-09-06T20:23:52.923Z,23.50
2022-09-06T20:26:23.433Z,23.40
2022-09-06T20:29:08.957Z,23.40
2022-09-06T20:31:37.662Z,23.40
2022-09-06T20:34:06.251Z,23.30
2022-09-06T20:36:33.786Z,23.30
2022-09-06T20:39:01.983Z,23.20
2022-09-06T20:41:29.160Z,23.20
2022-09-06T20:43:58.149Z,23.20
2022-09-06T20:46:27.892Z,23.10
2022-09-06T20:48:57.785Z,23.10
2022-09-06T20:51:25.353Z,23.10
2022-09-06T20:53:54.732Z,23.10
2022-09-06T20:56:27.969Z,22.90
2022-09-06T20:58:58.800Z,22.90
2022-09-06T21:01:27.957Z,22.90
2022-09-06T21:03:57.332Z,22.80
2022-09-06T21:06:26.328Z,22.70
2022-09-06T21:08:53.951Z,22.60
2022-09-06T21:11:21.312Z,22.50
2022-09-06T21:13:51.157Z,22.50
2022-09-06T21:16:24.179Z,22.60
2022-09-06T21:19:04.197Z,22.60
2022-09-06T21:21:34.072Z,22.70
2022-09-06T21:24:03.222Z,22.70
2022-09-06T21:26:30.587Z,22.80
2022-09-06T21:28:58.294Z,22.80
2022-09-06T21:31:31.176Z,22.60
2022-09-06T21:34:02.134Z,22.40
2022-09-06T21:36:32.080Z,22.20
2022-09-06T21:39:01.801Z,22.10
2022-09-06T21:41:30.169Z,22.00
2022-09-06T21:43:59.529Z,21.90
2022-09-06T21:46:32.981Z,21.70
2022-09-06T21:49:04.304Z,21.50
2022-09-06T21:51:32.456Z,21.30
2022-09-06T21:54:03.404Z,21.20
2022-09-06T21:56:32.209Z,21.10
2022-09-06T21:58:59.747Z,20.90
2022-09-06T22:01:29.619Z,20.90
2022-09-06T22:03:57.028Z,20.70
2022-09-06T22:06:26.483Z,20.50
2022-09-06T22:08:54.017Z,20.50
2022-09-06T22:11:27.661Z,20.30
2022-09-06T22:13:59.286Z,20.20
2022-09-06T22:16:27.916Z,20.10
2022-09-06T22:18:55.478Z,20.00
2022-09-06T22:21:22.886Z,19.90
2022-09-06T22:24:01.745Z,19.70
2022-09-06T22:26:30.979Z,19.60
2022-09-06T22:29:00.705Z,19.30
2022-09-06T22:31:29.943Z,18.90
2022-09-06T22:33:57.590Z,18.60
2022-09-06T22:36:25.432Z,18.50
2022-09-06T22:38:57.078Z,18.40
2022-09-06T22:41:29.866Z,18.40
2022-09-06T22:43:59.418Z,18.40
2022-09-06T22:46:26.981Z,18.40
2022-09-06T22:48:54.565Z,18.40
2022-09-06T22:51:21.920Z,18.40
2022-09-06T22:53:49.109Z,18.40
2022-09-06T22:56:16.323Z,18.50
2022-09-06T22:58:43.501Z,18.60
2022-09-06T23:01:14.873Z,18.70
2022-09-06T23:03:42.442Z,18.70
2022-09-06T23:06:10.151Z,18.70
2022-09-06T23:08:38.563Z,18.80
2022-09-06T23:11:11.679Z,18.90
2022-09-06T23:13:43.382Z,18.90
2022-09-06T23:16:13.395Z,18.90
2022-09-06T23:18:40.610Z,19.00
2022-09-06T23:21:13.231Z,19.10
2022-09-06T23:23:42.355Z,19.10
2022-09-06T23:26:18.356Z,19.20
2022-09-06T23:28:45.754Z,19.20
2022-09-06T23:31:15.081Z,19.20
2022-09-06T23:33:42.366Z,19.30
2022-09-06T23:36:12.249Z,19.30
2022-09-06T23:38:40.636Z,19.30
2022-09-06T23:41:09.780Z,19.30
2022-09-06T23:43:38.455Z,19.30
2022-09-06T23:46:06.025Z,19.20
2022-09-06T23:48:33.652Z,19.20
2022-09-06T23:51:00.936Z,19.10
2022-09-06T23:53:28.744Z,19.00
2022-09-06T23:55:55.945Z,18.80
2022-09-06T23:58:23.376Z,18.70
